sensor_id;sensor_type;location;lat;lon;timestamp;P1;durP1;ratioP1;P2;durP2;ratioP2
12332;SDS011;6232;48.094;11.288;2022-10-22T00:00:30;3.90;;;2.20;;
12332;SDS011;6232;48.094;11.288;2022-10-22T00:03:16;6.93;;;2.73;;
12332;SDS011;6232;48.094;11.288;2022-10-22T00:06:01;2.80;;;2.53;;
12332;SDS011;6232;48.094;11.288;2022-10-22T00:08:47;3.63;;;2.17;;
12332;SDS011;6232;48.094;11.288;2022-10-22T00:11:33;2.20;;;2.00;;
12332;SDS011;6232;48.094;11.288;2022-10-22T00:14:18;4.00;;;2.17;;
12332;SDS011;6232;48.094;11.288;2022-10-22T00:17:04;7.10;;;2.33;;
12332;SDS011;6232;48.094;11.288;2022-10-22T00:19:49;1.80;;;1.63;;
12332;SDS011;6232;48.094;11.288;2022-10-22T00:22:35;4.30;;;1.80;;
12332;SDS011;6232;48.094;11.288;2022-10-22T00:25:21;2.80;;;1.77;;
12332;SDS011;6232;48.094;11.288;2022-10-22T00:28:06;3.90;;;1.80;;
12332;SDS011;6232;48.094;11.288;2022-10-22T00:30:55;2.83;;;1.43;;
12332;SDS011;6232;48.094;11.288;2022-10-22T00:33:42;1.80;;;1.40;;
12332;SDS011;6232;48.094;11.288;2022-10-22T00:36:30;1.90;;;1.80;;
12332;SDS011;6232;48.094;11.288;2022-10-22T00:39:16;1.93;;;1.83;;
12332;SDS011;6232;48.094;11.288;2022-10-22T00:42:02;1.50;;;1.40;;
12332;SDS011;6232;48.094;11.288;2022-10-22T00:50:45;2.50;;;1.60;;
12332;SDS011;6232;48.094;11.288;2022-10-22T00:53:33;1.73;;;1.43;;
12332;SDS011;6232;48.094;11.288;2022-10-22T00:56:21;4.33;;;1.80;;
12332;SDS011;6232;48.094;11.288;2022-10-22T00:59:06;6.23;;;1.93;;
12332;SDS011;6232;48.094;11.288;2022-10-22T01:01:52;3.43;;;1.70;;
12332;SDS011;6232;48.094;11.288;2022-10-22T01:04:38;1.50;;;1.40;;
12332;SDS011;6232;48.094;11.288;2022-10-22T01:07:24;8.63;;;2.13;;
12332;SDS011;6232;48.094;11.288;2022-10-22T01:16:10;2.97;;;1.87;;
12332;SDS011;6232;48.094;11.288;2022-10-22T01:21:50;2.23;;;1.60;;
12332;SDS011;6232;48.094;11.288;2022-10-22T01:24:43;2.70;;;2.00;;
12332;SDS011;6232;48.094;11.288;2022-10-22T01:30:29;1.57;;;1.47;;
12332;SDS011;6232;48.094;11.288;2022-10-22T01:33:15;3.30;;;2.10;;
12332;SDS011;6232;48.094;11.288;2022-10-22T01:36:02;3.83;;;1.97;;
12332;SDS011;6232;48.094;11.288;2022-10-22T01:38:48;6.10;;;1.83;;
12332;SDS011;6232;48.094;11.288;2022-10-22T01:41:34;5.97;;;2.67;;
12332;SDS011;6232;48.094;11.288;2022-10-22T01:47:16;7.93;;;2.00;;
12332;SDS011;6232;48.094;11.288;2022-10-22T01:55:55;4.00;;;1.83;;
12332;SDS011;6232;48.094;11.288;2022-10-22T02:05:12;2.30;;;1.83;;
12332;SDS011;6232;48.094;11.288;2022-10-22T02:08:08;2.20;;;1.73;;
12332;SDS011;6232;48.094;11.288;2022-10-22T02:10:54;2.13;;;1.80;;
12332;SDS011;6232;48.094;11.288;2022-10-22T02:13:42;2.10;;;2.00;;
12332;SDS011;6232;48.094;11.288;2022-10-22T02:16:49;2.30;;;2.10;;
12332;SDS011;6232;48.094;11.288;2022-10-22T02:19:36;3.97;;;1.70;;
12332;SDS011;6232;48.094;11.288;2022-10-22T02:22:23;3.87;;;2.47;;
12332;SDS011;6232;48.094;11.288;2022-10-22T02:25:10;5.03;;;1.90;;
12332;SDS011;6232;48.094;11.288;2022-10-22T02:28:18;3.60;;;2.20;;
12332;SDS011;6232;48.094;11.288;2022-10-22T02:31:07;7.60;;;1.80;;
12332;SDS011;6232;48.094;11.288;2022-10-22T02:33:55;3.63;;;2.03;;
12332;SDS011;6232;48.094;11.288;2022-10-22T02:36:42;3.80;;;1.93;;
12332;SDS011;6232;48.094;11.288;2022-10-22T02:39:28;3.80;;;1.97;;
12332;SDS011;6232;48.094;11.288;2022-10-22T02:42:14;1.73;;;1.53;;
12332;SDS011;6232;48.094;11.288;2022-10-22T02:44:59;2.30;;;2.00;;
12332;SDS011;6232;48.094;11.288;2022-10-22T02:47:45;4.50;;;2.00;;
12332;SDS011;6232;48.094;11.288;2022-10-22T02:50:31;2.60;;;2.07;;
12332;SDS011;6232;48.094;11.288;2022-10-22T02:53:17;4.43;;;1.87;;
12332;SDS011;6232;48.094;11.288;2022-10-22T02:56:02;2.60;;;1.80;;
12332;SDS011;6232;48.094;11.288;2022-10-22T02:58:48;1.70;;;1.60;;
12332;SDS011;6232;48.094;11.288;2022-10-22T03:01:33;1.80;;;1.70;;
12332;SDS011;6232;48.094;11.288;2022-10-22T03:04:19;1.63;;;1.53;;
12332;SDS011;6232;48.094;11.288;2022-10-22T03:07:04;2.07;;;1.60;;
12332;SDS011;6232;48.094;11.288;2022-10-22T03:09:50;1.80;;;1.40;;
12332;SDS011;6232;48.094;11.288;2022-10-22T03:12:35;3.70;;;1.57;;
12332;SDS011;6232;48.094;11.288;2022-10-22T03:15:21;1.90;;;1.70;;
12332;SDS011;6232;48.094;11.288;2022-10-22T03:18:07;3.13;;;1.60;;
12332;SDS011;6232;48.094;11.288;2022-10-22T03:23:57;1.67;;;1.57;;
12332;SDS011;6232;48.094;11.288;2022-10-22T03:26:43;2.93;;;1.70;;
12332;SDS011;6232;48.094;11.288;2022-10-22T03:29:30;1.70;;;1.60;;
12332;SDS011;6232;48.094;11.288;2022-10-22T03:32:16;4.60;;;2.67;;
12332;SDS011;6232;48.094;11.288;2022-10-22T03:35:02;2.23;;;1.77;;
12332;SDS011;6232;48.094;11.288;2022-10-22T03:37:47;1.57;;;1.47;;
12332;SDS011;6232;48.094;11.288;2022-10-22T03:40:33;1.60;;;1.50;;
12332;SDS011;6232;48.094;11.288;2022-10-22T03:43:18;2.17;;;1.87;;
12332;SDS011;6232;48.094;11.288;2022-10-22T03:46:04;1.87;;;1.70;;
12332;SDS011;6232;48.094;11.288;2022-10-22T03:48:50;3.83;;;2.27;;
12332;SDS011;6232;48.094;11.288;2022-10-22T03:51:35;1.67;;;1.57;;
12332;SDS011;6232;48.094;11.288;2022-10-22T03:54:21;1.60;;;1.50;;
12332;SDS011;6232;48.094;11.288;2022-10-22T03:57:06;1.97;;;1.73;;
12332;SDS011;6232;48.094;11.288;2022-10-22T03:59:52;1.67;;;1.47;;
12332;SDS011;6232;48.094;11.288;2022-10-22T04:02:38;3.63;;;1.90;;
12332;SDS011;6232;48.094;11.288;2022-10-22T04:05:23;6.13;;;2.13;;
12332;SDS011;6232;48.094;11.288;2022-10-22T04:08:09;1.40;;;1.30;;
12332;SDS011;6232;48.094;11.288;2022-10-22T04:10:54;2.80;;;1.40;;
12332;SDS011;6232;48.094;11.288;2022-10-22T04:13:40;1.90;;;1.40;;
12332;SDS011;6232;48.094;11.288;2022-10-22T04:16:26;1.43;;;1.33;;
12332;SDS011;6232;48.094;11.288;2022-10-22T04:19:15;3.83;;;2.17;;
12332;SDS011;6232;48.094;11.288;2022-10-22T04:22:00;2.10;;;1.57;;
12332;SDS011;6232;48.094;11.288;2022-10-22T04:24:46;2.07;;;1.53;;
12332;SDS011;6232;48.094;11.288;2022-10-22T04:27:32;1.97;;;1.70;;
12332;SDS011;6232;48.094;11.288;2022-10-22T04:30:17;1.70;;;1.40;;
12332;SDS011;6232;48.094;11.288;2022-10-22T04:33:03;1.53;;;1.43;;
12332;SDS011;6232;48.094;11.288;2022-10-22T04:35:48;1.60;;;1.50;;
12332;SDS011;6232;48.094;11.288;2022-10-22T04:38:34;1.97;;;1.50;;
12332;SDS011;6232;48.094;11.288;2022-10-22T04:41:21;1.73;;;1.50;;
12332;SDS011;6232;48.094;11.288;2022-10-22T04:44:07;1.40;;;1.30;;
12332;SDS011;6232;48.094;11.288;2022-10-22T04:46:52;1.87;;;1.77;;
12332;SDS011;6232;48.094;11.288;2022-10-22T04:49:38;2.70;;;1.53;;
12332;SDS011;6232;48.094;11.288;2022-10-22T04:52:24;4.40;;;1.37;;
12332;SDS011;6232;48.094;11.288;2022-10-22T04:55:09;2.40;;;1.20;;
12332;SDS011;6232;48.094;11.288;2022-10-22T04:57:55;1.10;;;1.10;;
12332;SDS011;6232;48.094;11.288;2022-10-22T05:00:41;1.43;;;1.33;;
12332;SDS011;6232;48.094;11.288;2022-10-22T05:03:26;1.63;;;1.20;;
12332;SDS011;6232;48.094;11.288;2022-10-22T05:06:12;1.97;;;1.30;;
12332;SDS011;6232;48.094;11.288;2022-10-22T05:08:59;1.67;;;1.37;;
12332;SDS011;6232;48.094;11.288;2022-10-22T05:11:46;1.40;;;1.30;;
12332;SDS011;6232;48.094;11.288;2022-10-22T05:14:32;1.20;;;1.10;;
12332;SDS011;6232;48.094;11.288;2022-10-22T05:17:18;1.60;;;1.23;;
12332;SDS011;6232;48.094;11.288;2022-10-22T05:20:04;1.70;;;1.20;;
12332;SDS011;6232;48.094;11.288;2022-10-22T05:22:49;1.47;;;1.37;;
12332;SDS011;6232;48.094;11.288;2022-10-22T05:25:36;1.53;;;1.23;;
12332;SDS011;6232;48.094;11.288;2022-10-22T05:28:21;1.40;;;1.30;;
12332;SDS011;6232;48.094;11.288;2022-10-22T05:31:07;1.43;;;1.33;;
12332;SDS011;6232;48.094;11.288;2022-10-22T05:33:54;2.13;;;1.37;;
12332;SDS011;6232;48.094;11.288;2022-10-22T05:36:39;1.30;;;1.20;;
12332;SDS011;6232;48.094;11.288;2022-10-22T05:39:25;1.00;;;1.00;;
12332;SDS011;6232;48.094;11.288;2022-10-22T05:42:10;1.40;;;1.20;;
12332;SDS011;6232;48.094;11.288;2022-10-22T05:44:56;3.70;;;1.50;;
12332;SDS011;6232;48.094;11.288;2022-10-22T05:47:42;1.40;;;1.30;;
12332;SDS011;6232;48.094;11.288;2022-10-22T05:50:27;1.77;;;1.07;;
12332;SDS011;6232;48.094;11.288;2022-10-22T05:53:13;3.43;;;1.23;;
12332;SDS011;6232;48.094;11.288;2022-10-22T05:55:59;11.00;;;1.10;;
12332;SDS011;6232;48.094;11.288;2022-10-22T05:58:45;2.00;;;1.27;;
12332;SDS011;6232;48.094;11.288;2022-10-22T06:01:31;1.20;;;1.10;;
12332;SDS011;6232;48.094;11.288;2022-10-22T06:04:17;2.00;;;1.27;;
12332;SDS011;6232;48.094;11.288;2022-10-22T06:07:03;1.63;;;1.20;;
12332;SDS011;6232;48.094;11.288;2022-10-22T06:09:49;1.00;;;1.00;;
12332;SDS011;6232;48.094;11.288;2022-10-22T06:12:34;1.60;;;1.30;;
12332;SDS011;6232;48.094;11.288;2022-10-22T06:15:20;1.23;;;1.00;;
12332;SDS011;6232;48.094;11.288;2022-10-22T06:18:05;1.37;;;1.00;;
12332;SDS011;6232;48.094;11.288;2022-10-22T06:20:51;2.33;;;1.30;;
12332;SDS011;6232;48.094;11.288;2022-10-22T06:23:37;1.30;;;1.10;;
12332;SDS011;6232;48.094;11.288;2022-10-22T06:26:23;1.17;;;1.10;;
12332;SDS011;6232;48.094;11.288;2022-10-22T06:29:09;0.97;;;0.97;;
12332;SDS011;6232;48.094;11.288;2022-10-22T06:31:55;6.30;;;1.00;;
12332;SDS011;6232;48.094;11.288;2022-10-22T06:34:40;1.20;;;1.10;;
12332;SDS011;6232;48.094;11.288;2022-10-22T06:37:26;1.00;;;1.00;;
12332;SDS011;6232;48.094;11.288;2022-10-22T06:40:12;1.00;;;1.00;;
12332;SDS011;6232;48.094;11.288;2022-10-22T06:42:58;1.20;;;1.10;;
12332;SDS011;6232;48.094;11.288;2022-10-22T06:45:43;1.00;;;1.00;;
12332;SDS011;6232;48.094;11.288;2022-10-22T06:48:29;1.20;;;1.10;;
12332;SDS011;6232;48.094;11.288;2022-10-22T06:51:15;1.87;;;1.30;;
12332;SDS011;6232;48.094;11.288;2022-10-22T06:54:00;1.20;;;1.20;;
12332;SDS011;6232;48.094;11.288;2022-10-22T06:56:46;1.00;;;1.00;;
12332;SDS011;6232;48.094;11.288;2022-10-22T06:59:31;0.90;;;0.90;;
12332;SDS011;6232;48.094;11.288;2022-10-22T07:02:17;1.10;;;1.00;;
12332;SDS011;6232;48.094;11.288;2022-10-22T07:05:03;4.63;;;0.90;;
12332;SDS011;6232;48.094;11.288;2022-10-22T07:07:48;1.07;;;1.07;;
12332;SDS011;6232;48.094;11.288;2022-10-22T07:10:34;4.43;;;1.07;;
12332;SDS011;6232;48.094;11.288;2022-10-22T07:13:19;3.23;;;1.10;;
12332;SDS011;6232;48.094;11.288;2022-10-22T07:16:06;0.90;;;0.90;;
12332;SDS011;6232;48.094;11.288;2022-10-22T07:18:52;1.30;;;1.20;;
12332;SDS011;6232;48.094;11.288;2022-10-22T07:21:37;1.30;;;0.90;;
12332;SDS011;6232;48.094;11.288;2022-10-22T07:24:23;0.93;;;0.93;;
12332;SDS011;6232;48.094;11.288;2022-10-22T07:27:08;0.90;;;0.90;;
12332;SDS011;6232;48.094;11.288;2022-10-22T07:29:54;3.83;;;1.07;;
12332;SDS011;6232;48.094;11.288;2022-10-22T07:32:40;0.90;;;0.90;;
12332;SDS011;6232;48.094;11.288;2022-10-22T07:35:25;0.83;;;0.83;;
12332;SDS011;6232;48.094;11.288;2022-10-22T07:38:11;1.43;;;1.10;;
12332;SDS011;6232;48.094;11.288;2022-10-22T07:40:56;1.43;;;1.13;;
12332;SDS011;6232;48.094;11.288;2022-10-22T07:43:42;1.63;;;1.03;;
12332;SDS011;6232;48.094;11.288;2022-10-22T07:46:28;1.00;;;1.00;;
12332;SDS011;6232;48.094;11.288;2022-10-22T07:49:13;1.10;;;1.00;;
12332;SDS011;6232;48.094;11.288;2022-10-22T07:51:59;4.37;;;1.03;;
12332;SDS011;6232;48.094;11.288;2022-10-22T07:54:45;1.47;;;1.37;;
12332;SDS011;6232;48.094;11.288;2022-10-22T07:57:30;2.10;;;1.30;;
12332;SDS011;6232;48.094;11.288;2022-10-22T08:00:16;4.83;;;1.30;;
12332;SDS011;6232;48.094;11.288;2022-10-22T08:03:02;1.20;;;1.10;;
12332;SDS011;6232;48.094;11.288;2022-10-22T08:05:47;1.30;;;1.20;;
12332;SDS011;6232;48.094;11.288;2022-10-22T08:08:33;2.00;;;1.10;;
12332;SDS011;6232;48.094;11.288;2022-10-22T08:11:19;3.17;;;1.27;;
12332;SDS011;6232;48.094;11.288;2022-10-22T08:14:04;1.20;;;1.10;;
12332;SDS011;6232;48.094;11.288;2022-10-22T08:16:50;4.60;;;1.30;;
12332;SDS011;6232;48.094;11.288;2022-10-22T08:19:35;1.67;;;1.57;;
12332;SDS011;6232;48.094;11.288;2022-10-22T08:22:22;1.20;;;1.10;;
12332;SDS011;6232;48.094;11.288;2022-10-22T08:25:07;1.10;;;1.10;;
12332;SDS011;6232;48.094;11.288;2022-10-22T08:27:53;5.03;;;2.27;;
12332;SDS011;6232;48.094;11.288;2022-10-22T08:30:39;2.03;;;1.83;;
12332;SDS011;6232;48.094;11.288;2022-10-22T08:33:25;1.20;;;1.10;;
12332;SDS011;6232;48.094;11.288;2022-10-22T08:36:11;1.53;;;1.43;;
12332;SDS011;6232;48.094;11.288;2022-10-22T08:38:56;1.43;;;1.33;;
12332;SDS011;6232;48.094;11.288;2022-10-22T08:41:48;1.20;;;1.10;;
12332;SDS011;6232;48.094;11.288;2022-10-22T08:50:36;1.30;;;1.20;;
12332;SDS011;6232;48.094;11.288;2022-10-22T08:53:28;1.23;;;1.10;;
12332;SDS011;6232;48.094;11.288;2022-10-22T08:56:14;2.27;;;1.60;;
12332;SDS011;6232;48.094;11.288;2022-10-22T08:59:20;3.23;;;1.20;;
12332;SDS011;6232;48.094;11.288;2022-10-22T09:02:13;1.43;;;1.00;;
12332;SDS011;6232;48.094;11.288;2022-10-22T09:05:15;1.13;;;0.97;;
12332;SDS011;6232;48.094;11.288;2022-10-22T09:08:02;1.20;;;1.10;;
12332;SDS011;6232;48.094;11.288;2022-10-22T09:10:49;1.37;;;1.27;;
12332;SDS011;6232;48.094;11.288;2022-10-22T09:13:35;1.23;;;1.17;;
12332;SDS011;6232;48.094;11.288;2022-10-22T09:16:24;1.73;;;1.33;;
12332;SDS011;6232;48.094;11.288;2022-10-22T09:24:57;1.60;;;1.43;;
12332;SDS011;6232;48.094;11.288;2022-10-22T09:27:44;2.83;;;1.10;;
12332;SDS011;6232;48.094;11.288;2022-10-22T09:30:34;8.97;;;4.90;;
12332;SDS011;6232;48.094;11.288;2022-10-22T09:33:24;5.93;;;4.23;;
12332;SDS011;6232;48.094;11.288;2022-10-22T09:36:15;2.73;;;1.60;;
12332;SDS011;6232;48.094;11.288;2022-10-22T09:39:01;4.07;;;2.00;;
12332;SDS011;6232;48.094;11.288;2022-10-22T09:41:48;3.00;;;1.00;;
12332;SDS011;6232;48.094;11.288;2022-10-22T09:44:34;3.70;;;1.40;;
12332;SDS011;6232;48.094;11.288;2022-10-22T09:47:39;1.10;;;1.00;;
12332;SDS011;6232;48.094;11.288;2022-10-22T09:50:37;2.87;;;1.57;;
12332;SDS011;6232;48.094;11.288;2022-10-22T09:53:30;4.87;;;2.60;;
12332;SDS011;6232;48.094;11.288;2022-10-22T09:56:26;7.13;;;1.83;;
12332;SDS011;6232;48.094;11.288;2022-10-22T09:59:15;1.40;;;1.27;;
12332;SDS011;6232;48.094;11.288;2022-10-22T10:02:05;1.17;;;1.07;;
12332;SDS011;6232;48.094;11.288;2022-10-22T10:04:51;1.40;;;1.30;;
12332;SDS011;6232;48.094;11.288;2022-10-22T10:07:37;10.70;;;1.43;;
12332;SDS011;6232;48.094;11.288;2022-10-22T10:10:27;1.30;;;1.20;;
12332;SDS011;6232;48.094;11.288;2022-10-22T10:24:56;1.40;;;1.10;;
12332;SDS011;6232;48.094;11.288;2022-10-22T10:30:56;1.67;;;1.20;;
12332;SDS011;6232;48.094;11.288;2022-10-22T10:33:47;1.67;;;1.30;;
12332;SDS011;6232;48.094;11.288;2022-10-22T10:42:57;1.20;;;1.10;;
12332;SDS011;6232;48.094;11.288;2022-10-22T10:54:29;5.10;;;1.00;;
12332;SDS011;6232;48.094;11.288;2022-10-22T11:00:20;0.80;;;0.80;;
12332;SDS011;6232;48.094;11.288;2022-10-22T11:06:02;3.13;;;1.00;;
12332;SDS011;6232;48.094;11.288;2022-10-22T11:08:53;1.10;;;1.00;;
12332;SDS011;6232;48.094;11.288;2022-10-22T11:17:44;1.67;;;0.90;;
12332;SDS011;6232;48.094;11.288;2022-10-22T11:20:35;4.53;;;0.80;;
12332;SDS011;6232;48.094;11.288;2022-10-22T11:23:28;4.07;;;1.00;;
12332;SDS011;6232;48.094;11.288;2022-10-22T11:26:21;0.93;;;0.83;;
12332;SDS011;6232;48.094;11.288;2022-10-22T11:29:11;2.13;;;1.60;;
12332;SDS011;6232;48.094;11.288;2022-10-22T11:31:58;1.87;;;0.90;;
12332;SDS011;6232;48.094;11.288;2022-10-22T11:34:53;2.10;;;0.87;;
12332;SDS011;6232;48.094;11.288;2022-10-22T11:37:40;1.50;;;0.80;;
12332;SDS011;6232;48.094;11.288;2022-10-22T11:43:34;2.00;;;1.37;;
12332;SDS011;6232;48.094;11.288;2022-10-22T11:55:02;0.83;;;0.73;;
12332;SDS011;6232;48.094;11.288;2022-10-22T11:57:48;2.70;;;0.90;;
12332;SDS011;6232;48.094;11.288;2022-10-22T12:00:41;2.70;;;0.87;;
12332;SDS011;6232;48.094;11.288;2022-10-22T12:06:17;3.60;;;0.93;;
12332;SDS011;6232;48.094;11.288;2022-10-22T12:09:05;1.43;;;1.00;;
12332;SDS011;6232;48.094;11.288;2022-10-22T12:11:51;2.40;;;0.87;;
12332;SDS011;6232;48.094;11.288;2022-10-22T12:14:37;1.63;;;0.87;;
12332;SDS011;6232;48.094;11.288;2022-10-22T12:17:35;0.83;;;0.80;;
12332;SDS011;6232;48.094;11.288;2022-10-22T12:20:21;1.30;;;0.83;;
12332;SDS011;6232;48.094;11.288;2022-10-22T12:23:10;3.00;;;1.00;;
12332;SDS011;6232;48.094;11.288;2022-10-22T12:25:56;6.73;;;0.97;;
12332;SDS011;6232;48.094;11.288;2022-10-22T12:28:42;2.60;;;1.10;;
12332;SDS011;6232;48.094;11.288;2022-10-22T12:31:28;2.23;;;1.10;;
12332;SDS011;6232;48.094;11.288;2022-10-22T12:34:21;1.47;;;0.93;;
12332;SDS011;6232;48.094;11.288;2022-10-22T12:37:09;2.00;;;1.30;;
12332;SDS011;6232;48.094;11.288;2022-10-22T12:39:55;2.33;;;0.80;;
12332;SDS011;6232;48.094;11.288;2022-10-22T12:42:45;3.23;;;1.00;;
12332;SDS011;6232;48.094;11.288;2022-10-22T12:45:32;5.23;;;0.90;;
12332;SDS011;6232;48.094;11.288;2022-10-22T12:48:19;1.63;;;1.00;;
12332;SDS011;6232;48.094;11.288;2022-10-22T12:51:06;2.30;;;1.30;;
12332;SDS011;6232;48.094;11.288;2022-10-22T12:53:58;3.07;;;1.00;;
12332;SDS011;6232;48.094;11.288;2022-10-22T12:56:45;2.07;;;1.20;;
12332;SDS011;6232;48.094;11.288;2022-10-22T12:59:32;4.77;;;1.23;;
12332;SDS011;6232;48.094;11.288;2022-10-22T13:02:20;2.20;;;1.10;;
12332;SDS011;6232;48.094;11.288;2022-10-22T13:08:11;3.20;;;1.30;;
12332;SDS011;6232;48.094;11.288;2022-10-22T13:11:05;1.83;;;1.30;;
12332;SDS011;6232;48.094;11.288;2022-10-22T13:13:59;3.60;;;2.10;;
12332;SDS011;6232;48.094;11.288;2022-10-22T13:22:39;3.20;;;1.60;;
12332;SDS011;6232;48.094;11.288;2022-10-22T13:25:35;2.10;;;1.33;;
12332;SDS011;6232;48.094;11.288;2022-10-22T13:28:22;1.53;;;0.90;;
12332;SDS011;6232;48.094;11.288;2022-10-22T13:31:20;2.37;;;0.90;;
12332;SDS011;6232;48.094;11.288;2022-10-22T13:34:11;1.17;;;1.00;;
12332;SDS011;6232;48.094;11.288;2022-10-22T13:36:59;2.43;;;1.27;;
12332;SDS011;6232;48.094;11.288;2022-10-22T13:39:45;2.50;;;1.50;;
12332;SDS011;6232;48.094;11.288;2022-10-22T13:42:31;3.73;;;1.20;;
12332;SDS011;6232;48.094;11.288;2022-10-22T13:45:16;3.00;;;1.10;;
12332;SDS011;6232;48.094;11.288;2022-10-22T13:48:02;1.93;;;0.90;;
12332;SDS011;6232;48.094;11.288;2022-10-22T13:50:48;2.50;;;1.07;;
12332;SDS011;6232;48.094;11.288;2022-10-22T13:53:34;2.33;;;1.17;;
12332;SDS011;6232;48.094;11.288;2022-10-22T13:56:20;2.63;;;1.03;;
12332;SDS011;6232;48.094;11.288;2022-10-22T13:59:07;3.30;;;1.23;;
12332;SDS011;6232;48.094;11.288;2022-10-22T14:01:52;1.33;;;1.03;;
12332;SDS011;6232;48.094;11.288;2022-10-22T14:04:39;3.57;;;1.20;;
12332;SDS011;6232;48.094;11.288;2022-10-22T14:07:25;2.07;;;1.37;;
12332;SDS011;6232;48.094;11.288;2022-10-22T14:10:15;2.50;;;1.10;;
12332;SDS011;6232;48.094;11.288;2022-10-22T14:13:01;1.60;;;1.30;;
12332;SDS011;6232;48.094;11.288;2022-10-22T14:15:47;2.53;;;1.27;;
12332;SDS011;6232;48.094;11.288;2022-10-22T14:18:33;3.23;;;1.27;;
12332;SDS011;6232;48.094;11.288;2022-10-22T14:21:20;3.43;;;1.27;;
12332;SDS011;6232;48.094;11.288;2022-10-22T14:24:07;1.33;;;0.90;;
12332;SDS011;6232;48.094;11.288;2022-10-22T14:26:53;2.30;;;1.20;;
12332;SDS011;6232;48.094;11.288;2022-10-22T14:29:39;1.33;;;0.90;;
12332;SDS011;6232;48.094;11.288;2022-10-22T14:32:25;6.30;;;1.00;;
12332;SDS011;6232;48.094;11.288;2022-10-22T14:35:12;1.60;;;1.00;;
12332;SDS011;6232;48.094;11.288;2022-10-22T14:37:58;3.00;;;1.20;;
12332;SDS011;6232;48.094;11.288;2022-10-22T14:40:44;3.83;;;1.50;;
12332;SDS011;6232;48.094;11.288;2022-10-22T14:43:29;2.40;;;1.20;;
12332;SDS011;6232;48.094;11.288;2022-10-22T14:46:18;1.90;;;1.47;;
12332;SDS011;6232;48.094;11.288;2022-10-22T14:49:03;1.53;;;1.00;;
12332;SDS011;6232;48.094;11.288;2022-10-22T14:51:49;3.83;;;1.13;;
12332;SDS011;6232;48.094;11.288;2022-10-22T14:54:34;3.90;;;1.00;;
12332;SDS011;6232;48.094;11.288;2022-10-22T14:57:20;1.80;;;1.20;;
12332;SDS011;6232;48.094;11.288;2022-10-22T15:00:07;1.90;;;1.00;;
12332;SDS011;6232;48.094;11.288;2022-10-22T15:02:53;1.20;;;1.00;;
12332;SDS011;6232;48.094;11.288;2022-10-22T15:05:40;2.63;;;0.80;;
12332;SDS011;6232;48.094;11.288;2022-10-22T15:08:29;2.30;;;1.17;;
12332;SDS011;6232;48.094;11.288;2022-10-22T15:11:14;3.90;;;1.50;;
12332;SDS011;6232;48.094;11.288;2022-10-22T15:14:00;2.03;;;1.13;;
12332;SDS011;6232;48.094;11.288;2022-10-22T15:16:46;4.10;;;1.20;;
12332;SDS011;6232;48.094;11.288;2022-10-22T15:19:31;3.10;;;2.20;;
12332;SDS011;6232;48.094;11.288;2022-10-22T15:22:17;10.80;;;1.70;;
12332;SDS011;6232;48.094;11.288;2022-10-22T15:25:04;5.97;;;1.40;;
12332;SDS011;6232;48.094;11.288;2022-10-22T15:27:50;2.50;;;1.53;;
12332;SDS011;6232;48.094;11.288;2022-10-22T15:30:36;14.57;;;1.90;;
12332;SDS011;6232;48.094;11.288;2022-10-22T15:33:21;5.63;;;1.47;;
12332;SDS011;6232;48.094;11.288;2022-10-22T15:36:11;5.30;;;1.07;;
12332;SDS011;6232;48.094;11.288;2022-10-22T15:38:57;5.87;;;1.70;;
12332;SDS011;6232;48.094;11.288;2022-10-22T15:41:42;4.40;;;1.40;;
12332;SDS011;6232;48.094;11.288;2022-10-22T15:44:28;3.47;;;1.43;;
12332;SDS011;6232;48.094;11.288;2022-10-22T15:47:14;23.13;;;2.43;;
12332;SDS011;6232;48.094;11.288;2022-10-22T15:50:00;6.70;;;1.60;;
12332;SDS011;6232;48.094;11.288;2022-10-22T15:52:45;1.03;;;0.93;;
12332;SDS011;6232;48.094;11.288;2022-10-22T15:55:31;3.90;;;1.30;;
12332;SDS011;6232;48.094;11.288;2022-10-22T15:58:16;4.13;;;1.20;;
12332;SDS011;6232;48.094;11.288;2022-10-22T16:01:04;13.00;;;1.70;;
12332;SDS011;6232;48.094;11.288;2022-10-22T16:03:50;1.97;;;1.20;;
12332;SDS011;6232;48.094;11.288;2022-10-22T16:06:45;5.97;;;1.40;;
12332;SDS011;6232;48.094;11.288;2022-10-22T16:09:31;2.03;;;1.47;;
12332;SDS011;6232;48.094;11.288;2022-10-22T16:12:17;6.73;;;2.67;;
12332;SDS011;6232;48.094;11.288;2022-10-22T16:15:02;3.83;;;1.50;;
12332;SDS011;6232;48.094;11.288;2022-10-22T16:17:50;8.77;;;3.93;;
12332;SDS011;6232;48.094;11.288;2022-10-22T16:20:39;16.90;;;3.37;;
12332;SDS011;6232;48.094;11.288;2022-10-22T16:23:24;13.77;;;1.70;;
12332;SDS011;6232;48.094;11.288;2022-10-22T16:26:10;24.03;;;2.13;;
12332;SDS011;6232;48.094;11.288;2022-10-22T16:28:57;7.10;;;1.60;;
12332;SDS011;6232;48.094;11.288;2022-10-22T16:31:43;3.67;;;1.77;;
12332;SDS011;6232;48.094;11.288;2022-10-22T16:34:29;10.80;;;2.43;;
12332;SDS011;6232;48.094;11.288;2022-10-22T16:37:15;2.57;;;1.60;;
12332;SDS011;6232;48.094;11.288;2022-10-22T16:40:00;4.00;;;1.87;;
12332;SDS011;6232;48.094;11.288;2022-10-22T16:42:46;1.57;;;1.30;;
12332;SDS011;6232;48.094;11.288;2022-10-22T16:45:31;3.50;;;2.10;;
12332;SDS011;6232;48.094;11.288;2022-10-22T16:48:17;3.23;;;2.03;;
12332;SDS011;6232;48.094;11.288;2022-10-22T16:51:04;8.30;;;4.73;;
12332;SDS011;6232;48.094;11.288;2022-10-22T16:53:50;6.77;;;4.37;;
12332;SDS011;6232;48.094;11.288;2022-10-22T16:56:36;6.03;;;3.50;;
12332;SDS011;6232;48.094;11.288;2022-10-22T16:59:21;6.20;;;3.27;;
12332;SDS011;6232;48.094;11.288;2022-10-22T17:02:08;5.93;;;2.70;;
12332;SDS011;6232;48.094;11.288;2022-10-22T17:04:54;5.47;;;2.60;;
12332;SDS011;6232;48.094;11.288;2022-10-22T17:07:39;5.90;;;5.40;;
12332;SDS011;6232;48.094;11.288;2022-10-22T17:10:25;5.70;;;4.23;;
12332;SDS011;6232;48.094;11.288;2022-10-22T17:13:11;13.83;;;5.07;;
12332;SDS011;6232;48.094;11.288;2022-10-22T17:16:00;4.83;;;2.77;;
12332;SDS011;6232;48.094;11.288;2022-10-22T17:18:46;4.77;;;2.47;;
12332;SDS011;6232;48.094;11.288;2022-10-22T17:21:32;4.30;;;2.90;;
12332;SDS011;6232;48.094;11.288;2022-10-22T17:24:18;5.90;;;2.60;;
12332;SDS011;6232;48.094;11.288;2022-10-22T17:27:04;4.80;;;2.97;;
12332;SDS011;6232;48.094;11.288;2022-10-22T17:29:49;7.30;;;2.90;;
12332;SDS011;6232;48.094;11.288;2022-10-22T17:32:36;8.33;;;2.50;;
12332;SDS011;6232;48.094;11.288;2022-10-22T17:35:22;4.00;;;2.83;;
12332;SDS011;6232;48.094;11.288;2022-10-22T17:38:08;2.77;;;1.97;;
12332;SDS011;6232;48.094;11.288;2022-10-22T17:40:53;2.73;;;2.20;;
12332;SDS011;6232;48.094;11.288;2022-10-22T17:43:39;2.97;;;2.67;;
12332;SDS011;6232;48.094;11.288;2022-10-22T17:46:25;8.43;;;2.10;;
12332;SDS011;6232;48.094;11.288;2022-10-22T17:49:14;4.90;;;2.33;;
12332;SDS011;6232;48.094;11.288;2022-10-22T17:52:00;2.60;;;2.40;;
12332;SDS011;6232;48.094;11.288;2022-10-22T17:54:46;4.40;;;2.00;;
12332;SDS011;6232;48.094;11.288;2022-10-22T17:57:32;5.63;;;2.20;;
12332;SDS011;6232;48.094;11.288;2022-10-22T18:00:18;4.60;;;4.20;;
12332;SDS011;6232;48.094;11.288;2022-10-22T18:03:05;3.83;;;1.90;;
12332;SDS011;6232;48.094;11.288;2022-10-22T18:05:51;2.17;;;1.97;;
12332;SDS011;6232;48.094;11.288;2022-10-22T18:08:36;6.50;;;2.80;;
12332;SDS011;6232;48.094;11.288;2022-10-22T18:11:23;4.00;;;2.30;;
12332;SDS011;6232;48.094;11.288;2022-10-22T18:14:12;2.90;;;2.70;;
12332;SDS011;6232;48.094;11.288;2022-10-22T18:17:00;4.00;;;2.37;;
12332;SDS011;6232;48.094;11.288;2022-10-22T18:19:46;5.40;;;3.50;;
12332;SDS011;6232;48.094;11.288;2022-10-22T18:22:32;11.27;;;2.70;;
12332;SDS011;6232;48.094;11.288;2022-10-22T18:25:17;4.23;;;2.37;;
12332;SDS011;6232;48.094;11.288;2022-10-22T18:28:03;11.43;;;2.87;;
12332;SDS011;6232;48.094;11.288;2022-10-22T18:30:49;4.83;;;2.60;;
12332;SDS011;6232;48.094;11.288;2022-10-22T18:33:35;3.67;;;2.73;;
12332;SDS011;6232;48.094;11.288;2022-10-22T18:36:22;4.30;;;2.37;;
12332;SDS011;6232;48.094;11.288;2022-10-22T18:39:10;5.07;;;2.60;;